EZY696U EGGD-EGAC
Flight info
| Callsign | EZY696U |
|---|---|
| Flight time | 0h 54m |
| Altitude | 27000 |
| Route | BCN P69 DIZIM DCT KISWO DCT AVTIC DCT MONTY UN864 BILVO UP6 TUPEM DCT REMSI DCT NINEB M148 MAGEE |
| Aircraft | A320/M-SDE2E3FGHIJ1RWXYZ/LB1 |
Departure
| Time | 2026-04-26 18:13 |
|---|---|
| Airport | Bristol Airport (EGGD) |
Arrival
| Time | 2026-04-26 19:07 |
|---|---|
| Airport | George Best Belfast City Airport (EGAC) |
| Time | Latitude | Longitude | Altitude | Speed | Heading |
|---|---|---|---|---|---|
| 2026-04-26 17:32 | 51.38525 | -2.71015 | 626 ft | 0 kts | 356° |
| 2026-04-26 18:03 | 51.38523 | -2.71015 | 611 ft | 2 kts | 356° |
| 2026-04-26 18:03 | 51.38498 | -2.71012 | 624 ft | 3 kts | 356° |
| 2026-04-26 18:04 | 51.38477 | -2.71012 | 627 ft | 4 kts | 21° |
| 2026-04-26 18:04 | 51.38462 | -2.71034 | 627 ft | 4 kts | 82° |
| 2026-04-26 18:04 | 51.38461 | -2.71059 | 625 ft | 0 kts | 86° |
| 2026-04-26 18:07 | 51.38462 | -2.71036 | 625 ft | 8 kts | 86° |
| 2026-04-26 18:07 | 51.38464 | -2.70970 | 618 ft | 9 kts | 87° |
| 2026-04-26 18:08 | 51.38469 | -2.70853 | 626 ft | 7 kts | 86° |
| 2026-04-26 18:08 | 51.38473 | -2.70755 | 611 ft | 10 kts | 86° |
| 2026-04-26 18:08 | 51.38477 | -2.70648 | 616 ft | 9 kts | 86° |
| 2026-04-26 18:08 | 51.38471 | -2.70547 | 618 ft | 8 kts | 117° |
| 2026-04-26 18:09 | 51.38440 | -2.70518 | 618 ft | 0 kts | 168° |
| 2026-04-26 18:10 | 51.38391 | -2.70501 | 610 ft | 21 kts | 168° |
| 2026-04-26 18:10 | 51.38331 | -2.70506 | 620 ft | 4 kts | 216° |
| 2026-04-26 18:10 | 51.38320 | -2.70541 | 612 ft | 3 kts | 257° |
| 2026-04-26 18:11 | 51.38320 | -2.70552 | 620 ft | 0 kts | 267° |
| 2026-04-26 18:12 | 51.38320 | -2.70561 | 617 ft | 6 kts | 267° |
| 2026-04-26 18:13 | 51.38300 | -2.71075 | 603 ft | 91 kts | 266° |
| 2026-04-26 18:13 | 51.38239 | -2.72484 | 637 ft | 158 kts | 265° |
| 2026-04-26 18:13 | 51.38156 | -2.74286 | 1392 ft | 162 kts | 264° |
| 2026-04-26 18:13 | 51.38112 | -2.75490 | 2012 ft | 164 kts | 266° |
| 2026-04-26 18:14 | 51.38039 | -2.78111 | 2609 ft | 191 kts | 266° |
| 2026-04-26 18:14 | 51.37971 | -2.80331 | 2936 ft | 214 kts | 266° |
| 2026-04-26 18:14 | 51.37894 | -2.82844 | 3330 ft | 238 kts | 267° |
| 2026-04-26 18:14 | 51.37807 | -2.85659 | 3784 ft | 261 kts | 268° |
| 2026-04-26 18:15 | 51.37990 | -2.88588 | 4556 ft | 268 kts | 285° |
| 2026-04-26 18:15 | 51.38703 | -2.91315 | 5437 ft | 271 kts | 301° |
| 2026-04-26 18:15 | 51.39906 | -2.93709 | 5859 ft | 274 kts | 318° |
| 2026-04-26 18:15 | 51.41451 | -2.95418 | 5984 ft | 273 kts | 330° |
| 2026-04-26 18:16 | 51.43114 | -2.96961 | 6007 ft | 273 kts | 329° |
| 2026-04-26 18:16 | 51.46349 | -3.00054 | 6159 ft | 277 kts | 328° |
| 2026-04-26 18:16 | 51.48009 | -3.01708 | 6272 ft | 275 kts | 328° |
| 2026-04-26 18:17 | 51.49630 | -3.03333 | 6278 ft | 273 kts | 328° |
| 2026-04-26 18:17 | 51.51237 | -3.04947 | 6273 ft | 273 kts | 327° |
| 2026-04-26 18:17 | 51.52850 | -3.06563 | 6274 ft | 273 kts | 328° |
| 2026-04-26 18:17 | 51.54464 | -3.08177 | 6272 ft | 273 kts | 328° |
| 2026-04-26 18:18 | 51.56104 | -3.09816 | 6271 ft | 273 kts | 328° |
| 2026-04-26 18:18 | 51.57693 | -3.11403 | 6272 ft | 273 kts | 328° |
| 2026-04-26 18:18 | 51.59329 | -3.13037 | 6271 ft | 273 kts | 328° |
| 2026-04-26 18:18 | 51.60944 | -3.14650 | 6271 ft | 273 kts | 328° |
| 2026-04-26 18:19 | 51.62564 | -3.16270 | 6275 ft | 273 kts | 328° |
| 2026-04-26 18:19 | 51.64177 | -3.17886 | 6274 ft | 273 kts | 328° |
| 2026-04-26 18:19 | 51.65787 | -3.19506 | 6274 ft | 273 kts | 328° |
| 2026-04-26 18:19 | 51.67387 | -3.21116 | 6272 ft | 273 kts | 328° |
| 2026-04-26 18:20 | 51.68993 | -3.22724 | 6276 ft | 273 kts | 328° |
| 2026-04-26 18:20 | 51.70611 | -3.24334 | 6274 ft | 273 kts | 330° |
| 2026-04-26 18:20 | 51.72365 | -3.25491 | 6270 ft | 273 kts | 346° |
| 2026-04-26 18:20 | 51.72994 | -3.25695 | 6273 ft | 274 kts | 352° |
| 2026-04-26 18:21 | 51.76189 | -3.25361 | 7442 ft | 280 kts | 8° |
| 2026-04-26 18:21 | 51.78153 | -3.24881 | 8273 ft | 284 kts | 7° |
| 2026-04-26 18:21 | 51.80110 | -3.24415 | 9083 ft | 289 kts | 7° |
| 2026-04-26 18:21 | 51.82130 | -3.23935 | 9884 ft | 293 kts | 6° |
| 2026-04-26 18:22 | 51.84177 | -3.23444 | 10560 ft | 302 kts | 6° |
| 2026-04-26 18:22 | 51.86316 | -3.22926 | 10901 ft | 321 kts | 6° |
| 2026-04-26 18:22 | 51.88562 | -3.22372 | 11529 ft | 329 kts | 6° |
| 2026-04-26 18:22 | 51.90830 | -3.21810 | 12249 ft | 333 kts | 6° |
| 2026-04-26 18:23 | 51.93138 | -3.21237 | 12970 ft | 338 kts | 6° |
| 2026-04-26 18:23 | 51.95474 | -3.20655 | 13696 ft | 342 kts | 6° |
| 2026-04-26 18:23 | 51.97834 | -3.20067 | 14350 ft | 346 kts | 6° |
| 2026-04-26 18:23 | 52.00226 | -3.19473 | 14990 ft | 349 kts | 6° |
| 2026-04-26 18:24 | 52.02642 | -3.18873 | 15638 ft | 352 kts | 5° |
| 2026-04-26 18:24 | 52.05080 | -3.18444 | 16264 ft | 353 kts | 359° |
| 2026-04-26 18:24 | 52.07565 | -3.18260 | 16887 ft | 357 kts | 359° |
| 2026-04-26 18:24 | 52.10050 | -3.18077 | 17496 ft | 360 kts | 360° |
| 2026-04-26 18:25 | 52.12564 | -3.17890 | 18108 ft | 363 kts | 360° |
| 2026-04-26 18:25 | 52.15093 | -3.17703 | 18702 ft | 366 kts | 360° |
| 2026-04-26 18:25 | 52.16783 | -3.17575 | 19044 ft | 368 kts | 0° |
| 2026-04-26 18:25 | 52.19358 | -3.17377 | 19563 ft | 372 kts | 0° |
| 2026-04-26 18:26 | 52.21962 | -3.17176 | 20070 ft | 375 kts | 0° |
| 2026-04-26 18:26 | 52.24577 | -3.16972 | 20599 ft | 379 kts | 360° |
| 2026-04-26 18:26 | 52.27226 | -3.16768 | 21116 ft | 382 kts | 360° |
| 2026-04-26 18:26 | 52.29888 | -3.16564 | 21610 ft | 385 kts | 360° |
| 2026-04-26 18:27 | 52.32573 | -3.16356 | 22106 ft | 388 kts | 0° |
| 2026-04-26 18:27 | 52.35285 | -3.16143 | 22576 ft | 392 kts | 360° |
| 2026-04-26 18:27 | 52.38020 | -3.15928 | 23063 ft | 395 kts | 0° |
| 2026-04-26 18:27 | 52.40777 | -3.15712 | 23539 ft | 398 kts | 0° |
| 2026-04-26 18:28 | 52.43549 | -3.15496 | 23985 ft | 400 kts | 360° |
| 2026-04-26 18:28 | 52.46337 | -3.15280 | 24376 ft | 403 kts | 360° |
| 2026-04-26 18:28 | 52.49154 | -3.15061 | 24799 ft | 406 kts | 360° |
| 2026-04-26 18:28 | 52.51979 | -3.14837 | 25218 ft | 407 kts | 360° |
| 2026-04-26 18:29 | 52.54815 | -3.14614 | 25608 ft | 409 kts | 360° |
| 2026-04-26 18:29 | 52.57660 | -3.14391 | 25977 ft | 412 kts | 359° |
| 2026-04-26 18:29 | 52.60537 | -3.14164 | 26351 ft | 415 kts | 359° |
| 2026-04-26 18:29 | 52.63427 | -3.13937 | 26720 ft | 417 kts | 359° |
| 2026-04-26 18:30 | 52.66343 | -3.13712 | 27079 ft | 420 kts | 359° |
| 2026-04-26 18:30 | 52.69272 | -3.13485 | 27248 ft | 421 kts | 359° |
| 2026-04-26 18:30 | 52.72137 | -3.13416 | 27277 ft | 401 kts | 352° |
| 2026-04-26 18:30 | 52.74838 | -3.13969 | 27272 ft | 383 kts | 348° |
| 2026-04-26 18:31 | 52.77426 | -3.14564 | 27275 ft | 370 kts | 348° |
| 2026-04-26 18:31 | 52.79958 | -3.15157 | 27274 ft | 367 kts | 347° |
| 2026-04-26 18:31 | 52.82482 | -3.15762 | 27275 ft | 365 kts | 347° |
| 2026-04-26 18:31 | 52.84998 | -3.16367 | 27273 ft | 365 kts | 347° |
| 2026-04-26 18:32 | 52.87515 | -3.16973 | 27276 ft | 365 kts | 347° |
| 2026-04-26 18:32 | 52.90047 | -3.17328 | 27275 ft | 368 kts | 357° |
| 2026-04-26 18:32 | 52.92615 | -3.17145 | 27278 ft | 370 kts | 359° |
| 2026-04-26 18:32 | 52.95183 | -3.16937 | 27276 ft | 370 kts | 359° |
| 2026-04-26 18:33 | 52.97752 | -3.16730 | 27290 ft | 370 kts | 359° |
| 2026-04-26 18:33 | 53.00317 | -3.16523 | 27289 ft | 370 kts | 359° |
| 2026-04-26 18:33 | 53.02893 | -3.16320 | 27285 ft | 369 kts | 359° |
| 2026-04-26 18:33 | 53.05450 | -3.16121 | 27281 ft | 369 kts | 359° |
| 2026-04-26 18:34 | 53.08012 | -3.15924 | 27277 ft | 369 kts | 359° |
| 2026-04-26 18:34 | 53.10611 | -3.15722 | 27272 ft | 369 kts | 359° |
| 2026-04-26 18:34 | 53.13166 | -3.15519 | 27268 ft | 368 kts | 359° |
| 2026-04-26 18:34 | 53.15730 | -3.15312 | 27270 ft | 368 kts | 359° |
| 2026-04-26 18:35 | 53.18283 | -3.15102 | 27266 ft | 368 kts | 359° |
| 2026-04-26 18:35 | 53.20814 | -3.14896 | 27265 ft | 368 kts | 359° |
| 2026-04-26 18:35 | 53.23377 | -3.14694 | 27270 ft | 368 kts | 359° |
| 2026-04-26 18:35 | 53.25969 | -3.14492 | 27267 ft | 368 kts | 359° |
| 2026-04-26 18:36 | 53.28521 | -3.14292 | 27268 ft | 368 kts | 359° |
| 2026-04-26 18:36 | 53.31086 | -3.14091 | 27269 ft | 368 kts | 359° |
| 2026-04-26 18:36 | 53.33638 | -3.13893 | 27265 ft | 368 kts | 359° |
| 2026-04-26 18:36 | 53.36200 | -3.13693 | 27267 ft | 368 kts | 359° |
| 2026-04-26 18:37 | 53.38753 | -3.13507 | 27261 ft | 367 kts | 356° |
| 2026-04-26 18:37 | 53.41295 | -3.13759 | 27266 ft | 364 kts | 351° |
| 2026-04-26 18:37 | 53.43781 | -3.14136 | 27263 ft | 364 kts | 351° |
| 2026-04-26 18:37 | 53.46346 | -3.14522 | 27263 ft | 364 kts | 351° |
| 2026-04-26 18:38 | 53.48868 | -3.14904 | 27259 ft | 365 kts | 351° |
| 2026-04-26 18:38 | 53.51360 | -3.15279 | 27259 ft | 365 kts | 351° |
| 2026-04-26 18:38 | 53.53926 | -3.15662 | 27260 ft | 365 kts | 351° |
| 2026-04-26 18:38 | 53.56419 | -3.16035 | 27262 ft | 365 kts | 351° |
| 2026-04-26 18:39 | 53.58975 | -3.16419 | 27257 ft | 365 kts | 351° |
| 2026-04-26 18:39 | 53.61507 | -3.16803 | 27257 ft | 365 kts | 351° |
| 2026-04-26 18:39 | 53.64003 | -3.17183 | 27258 ft | 365 kts | 351° |
| 2026-04-26 18:39 | 53.66531 | -3.17572 | 27258 ft | 365 kts | 351° |
| 2026-04-26 18:40 | 53.69039 | -3.18134 | 27265 ft | 361 kts | 342° |
| 2026-04-26 18:40 | 53.71380 | -3.19527 | 27262 ft | 355 kts | 329° |
| 2026-04-26 18:40 | 53.73456 | -3.21726 | 27262 ft | 350 kts | 316° |
| 2026-04-26 18:40 | 53.75175 | -3.24577 | 27255 ft | 344 kts | 304° |
| 2026-04-26 18:41 | 53.76501 | -3.27909 | 27258 ft | 341 kts | 297° |
| 2026-04-26 18:41 | 53.77730 | -3.31341 | 27252 ft | 341 kts | 297° |
| 2026-04-26 18:41 | 53.78965 | -3.34774 | 27254 ft | 342 kts | 297° |
| 2026-04-26 18:41 | 53.80201 | -3.38211 | 27253 ft | 342 kts | 297° |
| 2026-04-26 18:42 | 53.81439 | -3.41656 | 27255 ft | 343 kts | 297° |
| 2026-04-26 18:42 | 53.82678 | -3.45106 | 27262 ft | 343 kts | 297° |
| 2026-04-26 18:42 | 53.83919 | -3.48565 | 27258 ft | 343 kts | 297° |
| 2026-04-26 18:42 | 53.85156 | -3.52016 | 27263 ft | 343 kts | 297° |
| 2026-04-26 18:43 | 53.86396 | -3.55472 | 27262 ft | 343 kts | 297° |
| 2026-04-26 18:43 | 53.87630 | -3.58919 | 27268 ft | 343 kts | 297° |
| 2026-04-26 18:43 | 53.88871 | -3.62389 | 27265 ft | 343 kts | 297° |
| 2026-04-26 18:43 | 53.90104 | -3.65852 | 27267 ft | 343 kts | 297° |
| 2026-04-26 18:44 | 53.91337 | -3.69323 | 27265 ft | 344 kts | 297° |
| 2026-04-26 18:44 | 53.92566 | -3.72789 | 27265 ft | 344 kts | 297° |
| 2026-04-26 18:44 | 53.93800 | -3.76278 | 27273 ft | 344 kts | 297° |
| 2026-04-26 18:44 | 53.95031 | -3.79764 | 27279 ft | 344 kts | 297° |
| 2026-04-26 18:45 | 53.96265 | -3.83253 | 27276 ft | 344 kts | 297° |
| 2026-04-26 18:45 | 53.97475 | -3.86739 | 27283 ft | 343 kts | 297° |
| 2026-04-26 18:45 | 53.98666 | -3.90242 | 27275 ft | 343 kts | 296° |
| 2026-04-26 18:45 | 53.99854 | -3.93776 | 27276 ft | 343 kts | 296° |
| 2026-04-26 18:46 | 54.01032 | -3.97299 | 27278 ft | 343 kts | 296° |
| 2026-04-26 18:46 | 54.02206 | -4.00815 | 27272 ft | 343 kts | 296° |
| 2026-04-26 18:46 | 54.03383 | -4.04342 | 27274 ft | 343 kts | 296° |
| 2026-04-26 18:46 | 54.04562 | -4.07863 | 27270 ft | 342 kts | 296° |
| 2026-04-26 18:47 | 54.05743 | -4.11389 | 27273 ft | 342 kts | 296° |
| 2026-04-26 18:47 | 54.07046 | -4.14804 | 27277 ft | 349 kts | 302° |
| 2026-04-26 18:47 | 54.08460 | -4.18189 | 27301 ft | 352 kts | 302° |
| 2026-04-26 18:47 | 54.09873 | -4.21584 | 27307 ft | 351 kts | 302° |
| 2026-04-26 18:48 | 54.11259 | -4.24930 | 27313 ft | 349 kts | 302° |
| 2026-04-26 18:48 | 54.12673 | -4.28354 | 27310 ft | 348 kts | 302° |
| 2026-04-26 18:48 | 54.14060 | -4.31714 | 27305 ft | 346 kts | 302° |
| 2026-04-26 18:48 | 54.15442 | -4.35066 | 27307 ft | 345 kts | 302° |
| 2026-04-26 18:49 | 54.16818 | -4.38406 | 27313 ft | 344 kts | 302° |
| 2026-04-26 18:49 | 54.18191 | -4.41739 | 27296 ft | 343 kts | 302° |
| 2026-04-26 18:49 | 54.19562 | -4.45066 | 27294 ft | 342 kts | 302° |
| 2026-04-26 18:49 | 54.20929 | -4.48394 | 27298 ft | 342 kts | 302° |
| 2026-04-26 18:50 | 54.22294 | -4.51721 | 27296 ft | 341 kts | 302° |
| 2026-04-26 18:50 | 54.23652 | -4.55032 | 27286 ft | 341 kts | 302° |
| 2026-04-26 18:50 | 54.25011 | -4.58352 | 27288 ft | 341 kts | 302° |
| 2026-04-26 18:50 | 54.26392 | -4.61744 | 27278 ft | 356 kts | 302° |
| 2026-04-26 18:51 | 54.27831 | -4.65292 | 27277 ft | 370 kts | 302° |
| 2026-04-26 18:51 | 54.29322 | -4.68974 | 27276 ft | 383 kts | 302° |
| 2026-04-26 18:51 | 54.30860 | -4.72759 | 27275 ft | 388 kts | 302° |
| 2026-04-26 18:51 | 54.32392 | -4.76524 | 27251 ft | 377 kts | 302° |
| 2026-04-26 18:52 | 54.33861 | -4.80129 | 26723 ft | 364 kts | 302° |
| 2026-04-26 18:52 | 54.35293 | -4.83660 | 26000 ft | 358 kts | 302° |
| 2026-04-26 18:52 | 54.36698 | -4.87140 | 25278 ft | 353 kts | 303° |
| 2026-04-26 18:52 | 54.38089 | -4.90594 | 24542 ft | 349 kts | 303° |
| 2026-04-26 18:53 | 54.39480 | -4.94048 | 23405 ft | 356 kts | 304° |
| 2026-04-26 18:53 | 54.40887 | -4.97548 | 22438 ft | 355 kts | 304° |
| 2026-04-26 18:53 | 54.42274 | -5.01010 | 21751 ft | 347 kts | 303° |
| 2026-04-26 18:53 | 54.43612 | -5.04353 | 21323 ft | 333 kts | 303° |
| 2026-04-26 18:54 | 54.44903 | -5.07570 | 20898 ft | 321 kts | 304° |
| 2026-04-26 18:55 | 54.49457 | -5.18814 | 19435 ft | 291 kts | 304° |
| 2026-04-26 18:55 | 54.50673 | -5.21584 | 19057 ft | 290 kts | 311° |
| 2026-04-26 18:55 | 54.52163 | -5.23929 | 18690 ft | 292 kts | 320° |
| 2026-04-26 18:55 | 54.53765 | -5.26084 | 18281 ft | 293 kts | 320° |
| 2026-04-26 18:56 | 54.55364 | -5.28247 | 17899 ft | 292 kts | 320° |
| 2026-04-26 18:56 | 54.56962 | -5.30419 | 17525 ft | 292 kts | 320° |
| 2026-04-26 18:56 | 54.58571 | -5.32611 | 16936 ft | 299 kts | 320° |
| 2026-04-26 18:56 | 54.60212 | -5.34849 | 16507 ft | 301 kts | 320° |
| 2026-04-26 18:57 | 54.61855 | -5.37089 | 16131 ft | 301 kts | 320° |
| 2026-04-26 18:57 | 54.62946 | -5.38577 | 15887 ft | 301 kts | 320° |
| 2026-04-26 18:57 | 54.64993 | -5.41896 | 15046 ft | 309 kts | 302° |
| 2026-04-26 18:57 | 54.65847 | -5.45350 | 14260 ft | 320 kts | 279° |
| 2026-04-26 18:58 | 54.65793 | -5.49156 | 13907 ft | 317 kts | 257° |
| 2026-04-26 18:58 | 54.64931 | -5.52615 | 13535 ft | 315 kts | 239° |
| 2026-04-26 18:58 | 54.63758 | -5.55768 | 12990 ft | 307 kts | 237° |
| 2026-04-26 18:58 | 54.62522 | -5.58652 | 12707 ft | 295 kts | 234° |
| 2026-04-26 18:59 | 54.61267 | -5.61401 | 12208 ft | 289 kts | 234° |
| 2026-04-26 18:59 | 54.60041 | -5.64090 | 11751 ft | 282 kts | 234° |
| 2026-04-26 18:59 | 54.58838 | -5.66710 | 11263 ft | 276 kts | 234° |
| 2026-04-26 18:59 | 54.57643 | -5.69298 | 10699 ft | 275 kts | 234° |
| 2026-04-26 19:00 | 54.56455 | -5.71857 | 10124 ft | 272 kts | 234° |
| 2026-04-26 19:00 | 54.55275 | -5.74387 | 9526 ft | 270 kts | 234° |
| 2026-04-26 19:00 | 54.54076 | -5.76852 | 8915 ft | 267 kts | 230° |
| 2026-04-26 19:00 | 54.52814 | -5.79183 | 8325 ft | 265 kts | 229° |
| 2026-04-26 19:01 | 54.51574 | -5.81448 | 7755 ft | 262 kts | 229° |
| 2026-04-26 19:01 | 54.50321 | -5.83749 | 7160 ft | 258 kts | 229° |
| 2026-04-26 19:01 | 54.49123 | -5.85964 | 6602 ft | 255 kts | 229° |
| 2026-04-26 19:01 | 54.47925 | -5.88191 | 6006 ft | 252 kts | 229° |
| 2026-04-26 19:02 | 54.46737 | -5.90392 | 5418 ft | 249 kts | 230° |
| 2026-04-26 19:02 | 54.45835 | -5.92862 | 4820 ft | 242 kts | 250° |
| 2026-04-26 19:02 | 54.45281 | -5.95577 | 4224 ft | 240 kts | 253° |
| 2026-04-26 19:02 | 54.44936 | -5.97414 | 3826 ft | 239 kts | 254° |
| 2026-04-26 19:03 | 54.44870 | -6.01057 | 3053 ft | 232 kts | 292° |
| 2026-04-26 19:03 | 54.45813 | -6.03167 | 2830 ft | 219 kts | 327° |
| 2026-04-26 19:03 | 54.47190 | -6.03840 | 2795 ft | 200 kts | 2° |
| 2026-04-26 19:03 | 54.48470 | -6.03143 | 2801 ft | 192 kts | 31° |
| 2026-04-26 19:04 | 54.49561 | -6.01853 | 2759 ft | 189 kts | 32° |
| 2026-04-26 19:04 | 54.50639 | -6.00566 | 2580 ft | 189 kts | 32° |
| 2026-04-26 19:04 | 54.51758 | -5.99234 | 2340 ft | 191 kts | 33° |
| 2026-04-26 19:04 | 54.52843 | -5.97944 | 2090 ft | 193 kts | 33° |
| 2026-04-26 19:05 | 54.54948 | -5.95437 | 1595 ft | 167 kts | 33° |
| 2026-04-26 19:05 | 54.55859 | -5.94353 | 1364 ft | 155 kts | 33° |
| 2026-04-26 19:05 | 54.56701 | -5.93350 | 1150 ft | 140 kts | 34° |
| 2026-04-26 19:06 | 54.57470 | -5.92435 | 966 ft | 128 kts | 33° |
| 2026-04-26 19:06 | 54.58186 | -5.91595 | 776 ft | 122 kts | 34° |
| 2026-04-26 19:06 | 54.58897 | -5.90787 | 605 ft | 124 kts | 36° |
| 2026-04-26 19:06 | 54.59610 | -5.89911 | 494 ft | 130 kts | 35° |
| 2026-04-26 19:07 | 54.60359 | -5.89020 | 264 ft | 131 kts | 36° |
| 2026-04-26 19:07 | 54.61092 | -5.88126 | 89 ft | 129 kts | 36° |
| 2026-04-26 19:07 | 54.61812 | -5.87240 | 20 ft | 115 kts | 33° |
| 2026-04-26 19:07 | 54.62251 | -5.86724 | 21 ft | 43 kts | 33° |
| 2026-04-26 19:08 | 54.62416 | -5.86473 | 21 ft | 17 kts | 68° |
| 2026-04-26 19:08 | 54.62467 | -5.86460 | 19 ft | 2 kts | 282° |
| 2026-04-26 19:08 | 54.62405 | -5.86531 | 22 ft | 29 kts | 213° |
| 2026-04-26 19:08 | 54.62185 | -5.86807 | 19 ft | 43 kts | 214° |
| 2026-04-26 19:09 | 54.61940 | -5.87094 | 17 ft | 34 kts | 214° |
| 2026-04-26 19:09 | 54.61813 | -5.87112 | 17 ft | 20 kts | 136° |
| 2026-04-26 19:09 | 54.61762 | -5.87007 | 21 ft | 8 kts | 139° |
| 2026-04-26 19:09 | 54.61699 | -5.87006 | 21 ft | 11 kts | 202° |
| 2026-04-26 19:10 | 54.61649 | -5.87081 | 21 ft | 9 kts | 222° |
| 2026-04-26 19:10 | 54.61616 | -5.87123 | 21 ft | 0 kts | 211° |
| 2026-04-26 19:10 | 54.61592 | -5.87120 | 22 ft | 5 kts | 171° |
| 2026-04-26 19:10 | 54.61566 | -5.87104 | 22 ft | 4 kts | 159° |
| 2026-04-26 19:11 | 54.61545 | -5.87092 | 21 ft | 3 kts | 161° |
| 2026-04-26 19:11 | 54.61543 | -5.87090 | 21 ft | 0 kts | 161° |
| 2026-04-26 19:11 | 54.61542 | -5.87090 | 21 ft | 0 kts | 161° |